createdAt,value
2023-02-12T00:02:03.484Z,3.31
2023-02-12T00:04:30.204Z,3.21
2023-02-12T00:06:56.847Z,3.07
2023-02-12T00:09:23.463Z,3.13
2023-02-12T00:11:50.184Z,3.08
2023-02-12T00:14:16.805Z,3.04
2023-02-12T00:16:43.542Z,3.08
2023-02-12T00:19:10.532Z,2.96
2023-02-12T00:21:37.153Z,2.88
2023-02-12T00:24:03.950Z,2.81
2023-02-12T00:26:30.639Z,2.74
2023-02-12T00:28:57.382Z,2.77
2023-02-12T00:31:27.270Z,2.77
2023-02-12T00:33:54.247Z,2.81
2023-02-12T00:36:23.698Z,2.76
2023-02-12T00:38:52.500Z,2.61
2023-02-12T00:41:19.645Z,2.64
2023-02-12T00:43:46.679Z,2.60
2023-02-12T00:46:13.390Z,2.55
2023-02-12T00:48:40.284Z,2.44
2023-02-12T00:51:07.473Z,2.49
2023-02-12T00:53:34.472Z,2.52
2023-02-12T00:56:01.418Z,2.49
2023-02-12T00:58:28.052Z,2.54
2023-02-12T01:00:54.947Z,2.49
2023-02-12T01:03:21.791Z,2.50
2023-02-12T01:05:48.399Z,2.40
2023-02-12T01:08:16.610Z,2.47
2023-02-12T01:10:44.322Z,2.57
2023-02-12T01:13:15.002Z,2.48
2023-02-12T01:15:42.708Z,2.42
2023-02-12T01:18:09.372Z,2.42
2023-02-12T01:20:36.036Z,2.40
2023-02-12T01:23:02.770Z,2.45
2023-02-12T01:25:29.427Z,2.55
2023-02-12T01:27:56.236Z,2.36
2023-02-12T01:30:24.309Z,2.46
2023-02-12T01:32:51.048Z,2.36
2023-02-12T01:35:17.796Z,2.37
2023-02-12T01:37:45.119Z,2.31
2023-02-12T01:40:15.717Z,2.30
2023-02-12T01:42:42.315Z,2.31
2023-02-12T01:45:45.792Z,2.19
2023-02-12T01:48:14.825Z,2.21
2023-02-12T01:50:43.122Z,2.13
2023-02-12T01:53:10.102Z,2.17
2023-02-12T01:55:36.964Z,2.13
2023-02-12T01:58:05.381Z,2.08
2023-02-12T02:00:33.213Z,2.13
2023-02-12T02:03:02.001Z,2.18
2023-02-12T02:05:41.587Z,2.19
2023-02-12T02:08:09.458Z,2.14
2023-02-12T02:10:36.071Z,2.10
2023-02-12T02:13:21.791Z,2.09
2023-02-12T02:15:54.987Z,2.06
2023-02-12T02:18:42.196Z,2.16
2023-02-12T02:21:40.949Z,2.09
2023-02-12T02:24:31.686Z,2.06
2023-02-12T02:27:41.083Z,2.02
2023-02-12T02:30:32.746Z,1.95
2023-02-12T02:33:47.518Z,1.98
2023-02-12T02:36:59.780Z,2.05
2023-02-12T02:39:50.202Z,2.00
2023-02-12T02:42:30.013Z,2.06
2023-02-12T02:45:11.479Z,2.05
2023-02-12T02:47:44.664Z,2.01
2023-02-12T02:50:15.178Z,2.04
2023-02-12T02:52:49.668Z,2.10
2023-02-12T02:55:19.895Z,2.12
2023-02-12T02:57:53.568Z,2.06
2023-02-12T03:00:52.224Z,2.10
2023-02-12T03:03:38.332Z,2.11
2023-02-12T03:06:13.900Z,2.19
2023-02-12T03:08:47.419Z,2.15
2023-02-12T03:11:26.720Z,2.26
2023-02-12T03:14:20.772Z,2.25
2023-02-12T03:16:59.628Z,2.27
2023-02-12T03:19:32.525Z,2.29
2023-02-12T03:22:09.471Z,2.25
2023-02-12T03:24:44.626Z,2.28
2023-02-12T03:27:23.205Z,2.24
2023-02-12T03:29:49.871Z,2.29
2023-02-12T03:32:46.686Z,2.24
2023-02-12T03:35:31.485Z,2.21
2023-02-12T03:38:26.775Z,2.12
2023-02-12T03:41:03.691Z,2.09
2023-02-12T03:43:39.709Z,2.11
2023-02-12T03:46:23.240Z,2.06
2023-02-12T03:49:30.336Z,2.08
2023-02-12T03:51:58.335Z,2.07
2023-02-12T03:54:25.799Z,2.17
2023-02-12T03:56:58.142Z,2.19
2023-02-12T03:59:26.669Z,2.20
2023-02-12T04:01:55.947Z,2.14
2023-02-12T04:04:23.638Z,2.23
2023-02-12T04:06:51.466Z,2.35
2023-02-12T04:09:18.514Z,2.36
2023-02-12T04:12:19.821Z,2.36
2023-02-12T04:15:32.199Z,2.34
2023-02-12T04:18:19.333Z,2.31
2023-02-12T04:21:38.747Z,2.35
2023-02-12T04:24:23.098Z,2.36
2023-02-12T04:26:55.976Z,2.28
2023-02-12T04:29:57.708Z,2.35
2023-02-12T04:32:33.580Z,2.29
2023-02-12T04:35:09.747Z,2.36
2023-02-12T04:37:42.112Z,2.41
2023-02-12T04:40:13.893Z,2.32
2023-02-12T04:42:49.523Z,2.29
2023-02-12T04:45:28.461Z,2.40
2023-02-12T04:47:55.155Z,2.35
2023-02-12T04:50:22.126Z,2.36
2023-02-12T04:52:48.780Z,2.36
2023-02-12T04:55:15.868Z,2.37
2023-02-12T04:57:42.515Z,2.45
2023-02-12T05:00:14.102Z,2.47
2023-02-12T05:02:41.111Z,2.47
2023-02-12T05:05:08.144Z,2.39
2023-02-12T05:07:34.855Z,2.39
2023-02-12T05:10:01.493Z,2.36
2023-02-12T05:12:28.192Z,2.48
2023-02-12T05:14:54.887Z,2.52
2023-02-12T05:17:24.994Z,2.51
2023-02-12T05:19:51.724Z,2.58
2023-02-12T05:22:18.563Z,2.46
2023-02-12T05:24:45.421Z,2.50
2023-02-12T05:27:12.049Z,2.49
2023-02-12T05:29:38.930Z,2.51
2023-02-12T05:32:06.982Z,2.54
2023-02-12T05:34:34.581Z,2.56
2023-02-12T05:37:01.457Z,2.60
2023-02-12T05:39:28.148Z,2.63
2023-02-12T05:41:54.777Z,2.65
2023-02-12T05:44:21.466Z,2.60
2023-02-12T05:46:48.218Z,2.63
2023-02-12T05:49:14.865Z,2.72
2023-02-12T05:51:41.594Z,2.68
2023-02-12T05:54:08.572Z,2.74
2023-02-12T05:56:37.960Z,2.57
2023-02-12T05:59:08.192Z,2.59
2023-02-12T06:01:44.696Z,2.69
2023-02-12T06:04:17.049Z,2.72
2023-02-12T06:06:43.941Z,2.67
2023-02-12T06:09:11.860Z,2.74
2023-02-12T06:11:38.708Z,2.62
2023-02-12T06:14:07.587Z,2.62
2023-02-12T06:16:35.226Z,2.64
2023-02-12T06:19:04.505Z,2.65
2023-02-12T06:21:32.205Z,2.63
2023-02-12T06:23:59.060Z,2.61
2023-02-12T06:26:25.882Z,2.68
2023-02-12T06:28:52.713Z,2.65
2023-02-12T06:31:22.494Z,2.75
2023-02-12T06:33:49.995Z,2.72
2023-02-12T06:36:16.751Z,2.68
2023-02-12T06:38:43.470Z,2.70
2023-02-12T06:41:10.272Z,2.68
2023-02-12T06:43:37.263Z,2.68
2023-02-12T06:46:04.833Z,2.75
2023-02-12T06:48:32.368Z,2.70
2023-02-12T06:51:17.295Z,2.81
2023-02-12T06:53:44.700Z,2.87
2023-02-12T06:56:13.521Z,2.91
2023-02-12T06:58:42.062Z,2.87
2023-02-12T07:01:18.060Z,2.86
2023-02-12T07:03:50.389Z,2.93
2023-02-12T07:06:17.671Z,2.96
2023-02-12T07:08:44.385Z,3.02
2023-02-12T07:11:11.793Z,3.00
2023-02-12T07:13:41.232Z,3.02
2023-02-12T07:16:11.884Z,3.01
2023-02-12T07:18:39.615Z,3.07
2023-02-12T07:21:07.857Z,3.12
2023-02-12T07:23:35.071Z,3.12
2023-02-12T07:26:06.696Z,3.24
2023-02-12T07:28:34.480Z,3.19
2023-02-12T07:31:11.250Z,3.06
2023-02-12T07:33:38.996Z,3.02
2023-02-12T07:36:08.340Z,3.05
2023-02-12T07:38:40.022Z,3.14
2023-02-12T07:41:15.845Z,3.11
2023-02-12T07:43:44.639Z,3.12
2023-02-12T07:46:18.159Z,3.16
2023-02-12T07:48:46.245Z,3.08
2023-02-12T07:51:15.724Z,3.18
2023-02-12T07:53:42.828Z,3.08
2023-02-12T07:56:12.070Z,3.13
2023-02-12T07:58:39.459Z,3.23
2023-02-12T08:01:36.561Z,3.40
2023-02-12T08:04:06.163Z,3.30
2023-02-12T08:06:35.626Z,3.43
2023-02-12T08:09:05.675Z,3.43
2023-02-12T08:11:33.495Z,3.48
2023-02-12T08:14:00.977Z,3.51
2023-02-12T08:16:28.999Z,3.49
2023-02-12T08:19:02.359Z,3.51
2023-02-12T08:21:34.677Z,3.54
2023-02-12T08:24:01.532Z,3.46
2023-02-12T08:26:34.437Z,3.53
2023-02-12T08:29:07.165Z,3.69
2023-02-12T08:31:39.350Z,3.72
2023-02-12T08:34:06.271Z,3.76
2023-02-12T08:36:38.815Z,3.78
2023-02-12T08:39:06.103Z,3.73
2023-02-12T08:41:33.087Z,3.78
2023-02-12T08:44:02.877Z,3.85
2023-02-12T08:46:35.165Z,3.90
2023-02-12T08:49:09.472Z,4.02
2023-02-12T08:51:37.460Z,3.94
2023-02-12T08:54:06.067Z,3.96
2023-02-12T08:56:35.088Z,3.92
2023-02-12T08:59:04.128Z,3.89
2023-02-12T09:01:33.061Z,3.96
2023-02-12T09:03:59.978Z,3.99
2023-02-12T09:06:27.573Z,3.99
2023-02-12T09:08:55.374Z,4.08
2023-02-12T09:11:26.714Z,4.00
2023-02-12T09:13:53.363Z,4.10
2023-02-12T09:16:20.084Z,4.23
2023-02-12T09:18:46.742Z,4.19
2023-02-12T09:21:15.955Z,4.13
2023-02-12T09:23:44.154Z,4.24
2023-02-12T09:26:13.712Z,4.33
2023-02-12T09:28:40.363Z,4.40
2023-02-12T09:31:08.378Z,4.38
2023-02-12T09:33:35.082Z,4.45
2023-02-12T09:36:03.436Z,4.31
2023-02-12T09:38:30.448Z,4.44
2023-02-12T09:41:36.619Z,4.53
2023-02-12T09:44:42.099Z,4.44
2023-02-12T09:47:13.351Z,4.51
2023-02-12T09:49:48.768Z,4.49
2023-02-12T09:52:21.959Z,4.53
2023-02-12T09:54:50.799Z,4.60
2023-02-12T09:57:31.168Z,4.76
2023-02-12T10:00:06.816Z,4.72
2023-02-12T10:02:36.710Z,4.74
2023-02-12T10:05:04.775Z,4.68
2023-02-12T10:08:24.905Z,4.62
2023-02-12T10:11:16.118Z,4.82
2023-02-12T10:14:22.144Z,4.94
2023-02-12T10:17:07.873Z,5.02
2023-02-12T10:20:11.623Z,5.05
2023-02-12T10:22:56.553Z,5.01
2023-02-12T10:25:54.771Z,5.01
2023-02-12T10:28:42.518Z,5.07
2023-02-12T10:31:36.034Z,5.18
2023-02-12T10:34:15.475Z,5.22
2023-02-12T10:36:47.647Z,5.10
2023-02-12T10:39:21.831Z,4.87
2023-02-12T10:42:36.086Z,4.90
2023-02-12T10:45:02.863Z,5.04
2023-02-12T10:47:29.506Z,5.09
2023-02-12T10:50:00.560Z,5.29
2023-02-12T10:52:42.416Z,5.27
2023-02-12T10:55:47.942Z,5.28
2023-02-12T10:58:24.238Z,5.17
2023-02-12T11:00:59.070Z,5.25
2023-02-12T11:03:34.380Z,5.44
2023-02-12T11:06:19.168Z,5.46
2023-02-12T11:08:46.059Z,5.49
2023-02-12T11:11:31.224Z,5.48
2023-02-12T11:14:14.580Z,5.37
2023-02-12T11:16:56.548Z,5.52
2023-02-12T11:19:26.989Z,5.52
2023-02-12T11:22:06.548Z,5.48
2023-02-12T11:24:35.955Z,5.38
2023-02-12T11:27:37.805Z,5.36
2023-02-12T11:30:21.786Z,5.44
2023-02-12T11:32:49.558Z,5.44
2023-02-12T11:35:26.937Z,5.47
2023-02-12T11:37:58.711Z,5.41
2023-02-12T11:40:36.490Z,5.42
2023-02-12T11:43:09.309Z,5.44
2023-02-12T11:45:47.538Z,5.47
2023-02-12T11:48:18.791Z,5.55
2023-02-12T11:50:52.186Z,5.53
2023-02-12T11:53:34.633Z,5.56
2023-02-12T11:56:08.046Z,5.46
2023-02-12T11:58:34.693Z,5.62
2023-02-12T12:01:24.176Z,5.50
2023-02-12T12:04:05.158Z,5.58
2023-02-12T12:06:36.295Z,5.58
2023-02-12T12:09:15.628Z,5.47
2023-02-12T12:12:17.764Z,5.65
2023-02-12T12:15:21.413Z,5.78
2023-02-12T12:18:14.981Z,5.82
2023-02-12T12:20:52.687Z,5.96
2023-02-12T12:23:25.334Z,5.93
2023-02-12T12:25:58.033Z,6.01
2023-02-12T12:28:35.029Z,5.84
2023-02-12T12:31:21.993Z,5.92
2023-02-12T12:34:06.124Z,6.04
2023-02-12T12:37:10.094Z,6.01
2023-02-12T12:39:58.343Z,6.22
2023-02-12T12:43:20.796Z,6.06
2023-02-12T12:46:17.564Z,5.96
2023-02-12T12:49:12.427Z,5.97
2023-02-12T12:52:11.129Z,6.07
2023-02-12T12:55:24.198Z,6.05
2023-02-12T12:58:24.803Z,6.11
2023-02-12T13:01:00.753Z,5.94
2023-02-12T13:03:42.662Z,6.00
2023-02-12T13:06:27.605Z,6.07
2023-02-12T13:09:24.969Z,6.15
2023-02-12T13:12:16.013Z,6.21
2023-02-12T13:15:33.221Z,6.09
2023-02-12T13:18:18.486Z,6.25
2023-02-12T13:21:20.140Z,6.27
2023-02-12T13:24:18.644Z,6.25
2023-02-12T13:27:08.550Z,6.39
2023-02-12T13:29:40.232Z,6.34
2023-02-12T13:32:29.041Z,6.29
2023-02-12T13:34:57.525Z,6.33
2023-02-12T13:37:54.358Z,6.34
2023-02-12T13:40:26.299Z,6.33
2023-02-12T13:43:30.682Z,6.22
2023-02-12T13:46:18.584Z,6.23
2023-02-12T13:49:28.976Z,6.22
2023-02-12T13:52:24.351Z,6.14
2023-02-12T13:55:23.052Z,6.11
2023-02-12T13:58:28.342Z,6.05
2023-02-12T14:01:00.837Z,6.20
2023-02-12T14:03:29.606Z,6.07
2023-02-12T14:06:17.651Z,6.10
2023-02-12T14:09:04.967Z,6.16
2023-02-12T14:11:31.635Z,6.26
2023-02-12T14:14:01.498Z,6.31
2023-02-12T14:16:46.723Z,6.23
2023-02-12T14:19:58.325Z,6.20
2023-02-12T14:25:25.468Z,6.34
2023-02-12T14:28:06.517Z,6.39
2023-02-12T14:30:40.348Z,6.46
2023-02-12T14:33:19.837Z,6.48
2023-02-12T14:35:49.515Z,6.43
2023-02-12T14:38:47.474Z,6.34
2023-02-12T14:41:44.632Z,6.25
2023-02-12T14:44:39.132Z,6.12
2023-02-12T14:47:14.620Z,6.09
2023-02-12T14:49:55.811Z,6.01
2023-02-12T14:52:28.742Z,5.99
2023-02-12T14:55:02.816Z,5.86
2023-02-12T14:57:38.895Z,5.82
2023-02-12T15:00:28.495Z,5.80
2023-02-12T15:03:02.587Z,5.88
2023-02-12T15:05:43.405Z,5.87
2023-02-12T15:08:29.174Z,5.87
2023-02-12T15:11:06.832Z,5.85
2023-02-12T15:14:27.093Z,5.83
2023-02-12T15:17:02.257Z,5.92
2023-02-12T15:20:02.142Z,5.89
2023-02-12T15:22:35.985Z,5.98
2023-02-12T15:25:25.870Z,5.89
2023-02-12T15:27:57.762Z,5.86
2023-02-12T15:30:27.956Z,5.89
2023-02-12T15:32:59.700Z,5.85
2023-02-12T15:35:29.976Z,5.78
2023-02-12T15:38:00.189Z,5.73
2023-02-12T15:40:27.980Z,5.62
2023-02-12T15:43:04.217Z,5.52
2023-02-12T15:45:34.176Z,5.45
2023-02-12T15:48:17.982Z,5.36
2023-02-12T15:50:55.294Z,5.29
2023-02-12T15:53:24.537Z,5.27
2023-02-12T15:55:51.766Z,5.26
2023-02-12T15:58:25.249Z,5.24
2023-02-12T16:00:53.727Z,5.24
2023-02-12T16:03:26.683Z,5.19
2023-02-12T16:05:58.073Z,5.14
2023-02-12T16:08:25.331Z,5.01
2023-02-12T16:10:54.321Z,4.97
2023-02-12T16:13:38.903Z,4.91
2023-02-12T16:16:18.586Z,4.90
2023-02-12T16:18:46.631Z,4.85
2023-02-12T16:21:20.552Z,4.81
2023-02-12T16:23:50.015Z,4.78
2023-02-12T16:26:23.427Z,4.77
2023-02-12T16:28:54.185Z,4.77
2023-02-12T16:31:24.592Z,4.64
2023-02-12T16:33:53.969Z,4.63
2023-02-12T16:36:31.764Z,4.58
2023-02-12T16:39:05.277Z,4.54
2023-02-12T16:41:33.546Z,4.45
2023-02-12T16:44:20.273Z,4.37
2023-02-12T16:46:56.661Z,4.26
2023-02-12T16:49:26.117Z,4.20
2023-02-12T16:51:53.808Z,4.13
2023-02-12T16:54:34.748Z,4.05
2023-02-12T16:57:02.068Z,3.94
2023-02-12T16:59:29.166Z,3.89
2023-02-12T17:02:05.279Z,3.76
2023-02-12T17:04:31.934Z,3.74
2023-02-12T17:06:58.521Z,3.73
2023-02-12T17:09:25.255Z,3.64
2023-02-12T17:11:51.902Z,3.66
2023-02-12T17:14:20.442Z,3.64
2023-02-12T17:16:47.736Z,3.58
2023-02-12T17:19:14.582Z,3.55
2023-02-12T17:21:43.813Z,3.48
2023-02-12T17:24:19.342Z,3.48
2023-02-12T17:26:45.901Z,3.45
2023-02-12T17:29:12.551Z,3.37
2023-02-12T17:31:39.307Z,3.30
2023-02-12T17:34:06.267Z,3.25
2023-02-12T17:36:33.566Z,3.15
2023-02-12T17:39:00.804Z,3.13
2023-02-12T17:41:27.461Z,3.09
2023-02-12T17:43:54.016Z,3.07
2023-02-12T17:46:23.730Z,3.05
2023-02-12T17:48:50.630Z,2.98
2023-02-12T17:51:18.079Z,2.86
2023-02-12T17:53:45.358Z,2.85
2023-02-12T17:56:14.202Z,2.91
2023-02-12T17:58:41.751Z,2.84
2023-02-12T18:01:11.257Z,2.86
2023-02-12T18:03:38.938Z,2.82
2023-02-12T18:06:08.682Z,2.77
2023-02-12T18:08:35.581Z,2.74
2023-02-12T18:11:06.728Z,2.62
2023-02-12T18:13:33.872Z,2.61
2023-02-12T18:16:00.695Z,2.48
2023-02-12T18:18:27.316Z,2.41
2023-02-12T18:20:54.073Z,2.47
2023-02-12T18:23:20.830Z,2.45
2023-02-12T18:25:47.365Z,2.45
2023-02-12T18:28:14.015Z,2.42
2023-02-12T18:30:43.123Z,2.31
2023-02-12T18:33:12.415Z,2.33
2023-02-12T18:35:41.672Z,2.24
2023-02-12T18:38:08.354Z,2.13
2023-02-12T18:40:35.252Z,2.06
2023-02-12T18:43:01.775Z,2.05
2023-02-12T18:45:28.396Z,2.03
2023-02-12T18:47:54.984Z,1.96
2023-02-12T18:50:21.646Z,1.82
2023-02-12T18:52:48.271Z,1.83
2023-02-12T18:55:14.833Z,1.82
2023-02-12T18:57:41.454Z,1.76
2023-02-12T19:00:08.873Z,1.65
2023-02-12T19:02:35.460Z,1.61
2023-02-12T19:05:02.263Z,1.62
2023-02-12T19:07:28.879Z,1.65
2023-02-12T19:09:55.515Z,1.66
2023-02-12T19:12:23.727Z,1.59
2023-02-12T19:14:50.326Z,1.66
2023-02-12T19:17:16.941Z,1.62
2023-02-12T19:19:43.893Z,1.67
2023-02-12T19:22:10.529Z,1.71
2023-02-12T19:24:46.193Z,1.58
2023-02-12T19:27:13.614Z,1.60
2023-02-12T19:29:40.250Z,1.53
2023-02-12T19:32:06.938Z,2.36
2023-02-12T19:34:33.544Z,2.06
2023-02-12T19:37:00.299Z,1.88
2023-02-12T19:39:27.474Z,1.75
2023-02-12T19:41:56.116Z,1.67
2023-02-12T19:44:25.400Z,1.66
2023-02-12T19:46:52.642Z,1.71
2023-02-12T19:49:26.881Z,1.56
2023-02-12T19:51:53.763Z,1.52
2023-02-12T19:54:21.974Z,1.49
2023-02-12T19:56:49.113Z,1.48
2023-02-12T19:59:18.013Z,1.38
2023-02-12T20:01:45.975Z,1.43
2023-02-12T20:04:14.758Z,1.27
2023-02-12T20:06:42.509Z,1.15
2023-02-12T20:09:11.095Z,1.07
2023-02-12T20:11:38.576Z,0.84
2023-02-12T20:14:10.012Z,0.84
2023-02-12T20:16:39.119Z,0.88
2023-02-12T20:19:33.438Z,0.99
2023-02-12T20:22:01.628Z,0.90
2023-02-12T20:24:31.056Z,0.87
2023-02-12T20:26:59.875Z,0.80
2023-02-12T20:29:26.518Z,0.75
2023-02-12T20:31:53.342Z,0.82
2023-02-12T20:34:20.348Z,0.82
2023-02-12T20:36:47.394Z,0.79
2023-02-12T20:39:16.404Z,0.80
2023-02-12T20:41:43.387Z,0.83
2023-02-12T20:44:14.015Z,0.63
2023-02-12T20:46:42.197Z,0.63
2023-02-12T20:49:12.480Z,0.71
2023-02-12T20:51:39.314Z,0.61
2023-02-12T20:54:06.064Z,0.59
2023-02-12T20:56:35.827Z,0.60
2023-02-12T20:59:03.479Z,0.59
2023-02-12T21:01:36.090Z,0.51
2023-02-12T21:04:08.646Z,0.41
2023-02-12T21:06:36.030Z,0.38
2023-02-12T21:09:02.739Z,0.44
2023-02-12T21:11:29.898Z,0.45
2023-02-12T21:14:12.423Z,0.50
2023-02-12T21:16:45.455Z,0.52
2023-02-12T21:19:14.031Z,0.54
2023-02-12T21:21:41.591Z,0.47
2023-02-12T21:24:11.807Z,0.42
2023-02-12T21:26:38.447Z,0.34
2023-02-12T21:29:05.135Z,0.31
2023-02-12T21:31:37.668Z,0.26
2023-02-12T21:34:06.115Z,0.04
2023-02-12T21:36:36.475Z,-0.12
2023-02-12T21:39:05.200Z,-0.23
2023-02-12T21:41:36.849Z,-0.30
2023-02-12T21:44:06.980Z,-0.16
2023-02-12T21:46:35.846Z,-0.14
2023-02-12T21:49:03.495Z,-0.09
2023-02-12T21:51:39.004Z,-0.08
2023-02-12T21:54:09.319Z,-0.12
2023-02-12T21:56:37.849Z,-0.17
2023-02-12T21:59:04.846Z,-0.19
2023-02-12T22:01:34.568Z,-0.22
2023-02-12T22:04:02.116Z,-0.22
2023-02-12T22:06:28.918Z,-0.26
2023-02-12T22:09:00.620Z,-0.20
2023-02-12T22:11:27.457Z,-0.23
2023-02-12T22:13:54.078Z,-0.29
2023-02-12T22:16:23.112Z,-0.55
2023-02-12T22:18:52.849Z,-0.64
2023-02-12T22:21:19.491Z,-0.62
2023-02-12T22:23:46.134Z,-0.65
2023-02-12T22:26:16.182Z,-0.59
2023-02-12T22:28:48.828Z,-0.50
2023-02-12T22:31:19.618Z,-0.33
2023-02-12T22:33:47.886Z,-0.34
2023-02-12T22:36:14.858Z,-0.39
2023-02-12T22:38:41.765Z,-0.27
2023-02-12T22:41:09.101Z,-0.26
2023-02-12T22:43:39.604Z,-0.36
2023-02-12T22:46:07.908Z,-0.32
2023-02-12T22:48:34.716Z,-0.33
2023-02-12T22:51:11.865Z,-0.47
2023-02-12T22:53:38.956Z,-0.62
2023-02-12T22:56:07.937Z,-0.75
2023-02-12T22:58:35.096Z,-0.67
2023-02-12T23:01:06.690Z,-0.65
2023-02-12T23:03:33.881Z,-0.54
2023-02-12T23:06:05.494Z,-0.51
2023-02-12T23:08:32.531Z,-0.47
2023-02-12T23:10:59.583Z,-0.50
2023-02-12T23:13:29.852Z,-0.54
2023-02-12T23:15:57.636Z,-0.60
2023-02-12T23:18:24.880Z,-0.67
2023-02-12T23:20:52.808Z,-0.69
2023-02-12T23:23:20.792Z,-0.72
2023-02-12T23:25:48.001Z,-0.71
2023-02-12T23:28:15.270Z,-0.58
2023-02-12T23:30:42.040Z,-0.56
2023-02-12T23:33:09.058Z,-0.67
2023-02-12T23:35:35.683Z,-0.52
2023-02-12T23:38:04.322Z,-0.44
2023-02-12T23:40:32.379Z,-0.40
2023-02-12T23:42:59.122Z,-0.49
2023-02-12T23:45:26.709Z,-0.53
2023-02-12T23:47:53.425Z,-0.50
2023-02-12T23:50:20.478Z,-0.55
2023-02-12T23:52:47.180Z,-0.58
2023-02-12T23:55:13.821Z,-0.55
2023-02-12T23:57:40.439Z,-0.59
